createdAt,value
2023-05-21T10:58:15.189Z,23.87
2023-05-21T10:59:15.179Z,24.18
2023-05-21T11:00:15.209Z,24.62
2023-05-21T11:01:15.177Z,24.52
2023-05-21T11:02:15.167Z,24.76
2023-05-21T11:03:15.165Z,25.15
2023-05-21T11:04:15.093Z,25.25
2023-05-21T11:05:15.091Z,25.67
2023-05-21T11:06:15.077Z,26.06
2023-05-21T11:07:15.068Z,25.94
2023-05-21T11:08:15.059Z,25.94
2023-05-21T11:09:15.044Z,25.76
2023-05-21T11:10:15.037Z,25.52
2023-05-21T11:11:15.003Z,25.92
2023-05-21T11:12:15.025Z,26.21
2023-05-21T11:13:15.021Z,25.69
2023-05-21T11:14:14.978Z,25.55
2023-05-21T11:15:14.982Z,25.67
2023-05-21T11:16:14.972Z,25.64
2023-05-21T11:17:15.085Z,25.65
2023-05-21T11:18:14.970Z,25.90
2023-05-21T11:19:14.944Z,26.26
2023-05-21T11:20:14.973Z,26.72
2023-05-21T11:21:14.908Z,26.80
2023-05-21T11:22:14.886Z,26.94
2023-05-21T11:23:14.899Z,26.77
2023-05-21T11:24:14.883Z,26.54
2023-05-21T11:25:14.845Z,26.33
2023-05-21T11:26:14.840Z,26.52
2023-05-21T11:27:14.854Z,26.09
2023-05-21T11:28:14.851Z,26.39
2023-05-21T11:29:14.814Z,26.51
2023-05-21T11:30:14.834Z,26.29
2023-05-21T11:31:14.820Z,26.37
2023-05-21T11:32:14.781Z,26.70
2023-05-21T11:33:14.795Z,26.51
2023-05-21T11:34:14.796Z,26.33
2023-05-21T11:35:14.740Z,26.02
2023-05-21T11:36:14.752Z,26.01
2023-05-21T11:37:14.727Z,25.87
2023-05-21T11:38:14.743Z,25.92
2023-05-21T11:39:14.693Z,26.02
2023-05-21T11:40:14.713Z,26.17
2023-05-21T11:41:14.694Z,26.23
2023-05-21T11:42:14.667Z,26.06
2023-05-21T11:43:14.665Z,25.97
2023-05-21T11:44:14.652Z,26.45
2023-05-21T11:45:14.653Z,26.84
2023-05-21T11:46:14.673Z,27.24
2023-05-21T11:47:14.632Z,27.55
2023-05-21T11:48:14.618Z,27.19
2023-05-21T11:49:14.590Z,27.50
2023-05-21T11:50:14.651Z,27.82
2023-05-21T11:51:14.576Z,27.92
2023-05-21T11:52:14.583Z,28.00
2023-05-21T11:53:14.587Z,27.44
2023-05-21T11:54:14.565Z,27.51
2023-05-21T11:55:14.527Z,27.27
2023-05-21T11:56:14.528Z,27.28
2023-05-21T11:57:14.529Z,27.17
2023-05-21T11:58:14.538Z,27.13
2023-05-21T11:59:17.146Z,26.54
2023-05-21T12:00:14.498Z,26.66
2023-05-21T12:01:14.488Z,26.69
2023-05-21T12:02:14.470Z,26.88
2023-05-21T12:03:14.843Z,27.10
2023-05-21T12:04:14.487Z,27.19
2023-05-21T12:05:14.442Z,26.76
2023-05-21T12:06:14.499Z,26.99
2023-05-21T12:07:14.431Z,26.76
2023-05-21T12:08:14.417Z,27.02
2023-05-21T12:09:14.390Z,27.09
2023-05-21T12:10:14.386Z,26.81
2023-05-21T12:11:14.389Z,27.06
2023-05-21T12:12:14.396Z,27.28
2023-05-21T12:13:14.388Z,27.07
2023-05-21T12:14:14.370Z,27.24
2023-05-21T12:15:14.354Z,26.91
2023-05-21T12:16:14.367Z,26.65
2023-05-21T12:17:14.332Z,26.37
2023-05-21T12:18:14.351Z,25.73
2023-05-21T12:19:14.339Z,25.57
2023-05-21T12:20:14.298Z,25.58
2023-05-21T12:21:14.277Z,25.36
2023-05-21T12:22:14.289Z,25.65
2023-05-21T12:23:14.267Z,25.42
2023-05-21T12:24:14.258Z,25.57
2023-05-21T12:25:14.254Z,25.35
2023-05-21T12:26:14.233Z,25.32
2023-05-21T12:27:14.217Z,25.69
2023-05-21T12:28:14.230Z,25.92
2023-05-21T12:29:14.201Z,25.94
2023-05-21T12:30:14.194Z,26.10
2023-05-21T12:31:14.208Z,26.07
2023-05-21T12:32:14.223Z,25.91
2023-05-21T12:33:14.194Z,25.90
2023-05-21T12:34:14.181Z,26.12
2023-05-21T12:35:14.163Z,25.90
2023-05-21T12:36:14.153Z,26.01
2023-05-21T12:37:14.116Z,26.10
2023-05-21T12:38:14.186Z,25.97
2023-05-21T12:39:14.141Z,26.20
2023-05-21T12:40:14.127Z,26.23
2023-05-21T12:41:14.106Z,26.13
2023-05-21T12:42:14.081Z,26.43
2023-05-21T12:43:14.094Z,26.35
2023-05-21T12:44:14.063Z,26.45
2023-05-21T12:45:14.039Z,26.66
2023-05-21T12:46:14.068Z,26.60
2023-05-21T12:47:14.037Z,26.77
2023-05-21T12:48:14.052Z,26.88
2023-05-21T12:49:14.027Z,26.70
2023-05-21T12:50:14.202Z,26.81
2023-05-21T12:51:14.006Z,26.55
2023-05-21T12:52:14.043Z,26.62
2023-05-21T12:53:13.989Z,26.54
2023-05-21T12:54:13.980Z,26.57
2023-05-21T12:55:13.960Z,26.60
2023-05-21T12:56:13.967Z,26.40
2023-05-21T12:57:13.928Z,26.43
2023-05-21T12:58:13.950Z,26.30
2023-05-21T12:59:13.906Z,26.37
2023-05-21T13:00:13.924Z,26.37
2023-05-21T13:01:13.943Z,26.55
2023-05-21T13:02:13.890Z,26.82
2023-05-21T13:03:13.996Z,27.22
2023-05-21T13:04:13.903Z,27.57
2023-05-21T13:05:13.896Z,27.81
2023-05-21T13:06:13.923Z,27.57
2023-05-21T13:07:13.852Z,27.57
2023-05-21T13:08:13.887Z,27.44
2023-05-21T13:09:13.833Z,27.57
2023-05-21T13:10:13.848Z,27.54
2023-05-21T13:11:13.819Z,27.94
2023-05-21T13:12:13.790Z,27.78
2023-05-21T13:13:13.785Z,28.06
2023-05-21T13:14:13.821Z,28.30
2023-05-21T13:15:13.788Z,28.44
2023-05-21T13:16:13.827Z,28.54
2023-05-21T13:17:13.765Z,28.66
2023-05-21T13:18:13.753Z,28.33
2023-05-21T13:19:13.776Z,28.41
2023-05-21T13:20:13.736Z,28.73
2023-05-21T13:21:13.712Z,28.73
2023-05-21T13:22:13.776Z,29.02
2023-05-21T13:23:13.710Z,28.92
2023-05-21T13:24:13.692Z,27.87
2023-05-21T13:25:13.726Z,27.99
2023-05-21T13:26:13.673Z,28.12
2023-05-21T13:27:13.706Z,28.44
2023-05-21T13:28:13.725Z,28.59
2023-05-21T13:29:13.649Z,29.00
2023-05-21T13:30:13.685Z,28.74
2023-05-21T13:31:13.639Z,29.23
2023-05-21T13:32:13.626Z,29.83
2023-05-21T13:33:13.692Z,29.63
2023-05-21T13:34:13.604Z,29.86
2023-05-21T13:35:13.611Z,29.61
2023-05-21T13:36:13.611Z,29.09
2023-05-21T13:37:13.587Z,28.83
2023-05-21T13:38:13.609Z,29.12
2023-05-21T13:39:13.572Z,29.49
2023-05-21T13:40:13.581Z,30.20
2023-05-21T13:41:13.560Z,29.57
2023-05-21T13:42:13.569Z,29.94
2023-05-21T13:43:13.589Z,29.95
2023-05-21T13:44:13.558Z,29.60
2023-05-21T13:45:13.557Z,29.11
2023-05-21T13:46:13.536Z,28.77
2023-05-21T13:47:13.549Z,28.74
2023-05-21T13:48:13.612Z,28.93
2023-05-21T13:49:13.519Z,29.09
2023-05-21T13:50:13.496Z,29.39
2023-05-21T13:51:19.874Z,29.45
2023-05-21T13:52:13.515Z,30.13
2023-05-21T13:53:13.542Z,30.64
2023-05-21T13:54:13.498Z,30.67
2023-05-21T13:55:13.476Z,29.97
2023-05-21T13:56:13.468Z,30.08
2023-05-21T13:57:13.487Z,29.37
2023-05-21T13:58:13.496Z,29.00
2023-05-21T13:59:13.457Z,29.27
2023-05-21T14:00:13.457Z,29.31
2023-05-21T14:01:13.501Z,29.21
2023-05-21T14:02:13.487Z,29.12
2023-05-21T14:03:13.506Z,29.16
2023-05-21T14:04:13.439Z,29.48
2023-05-21T14:05:13.510Z,29.57
2023-05-21T14:06:13.438Z,29.51
2023-05-21T14:07:13.448Z,29.21
2023-05-21T14:08:13.410Z,29.33
2023-05-21T14:09:13.410Z,29.52
2023-05-21T14:10:13.413Z,29.43
2023-05-21T14:11:13.408Z,28.76
2023-05-21T14:12:13.401Z,29.02
2023-05-21T14:13:19.456Z,29.33
2023-05-21T14:14:13.386Z,29.48
2023-05-21T14:15:13.418Z,29.73
2023-05-21T14:16:13.474Z,30.02
2023-05-21T14:17:13.365Z,30.26
2023-05-21T14:18:13.369Z,30.15
2023-05-21T14:19:13.445Z,30.16
2023-05-21T14:20:13.381Z,29.51
2023-05-21T14:21:13.340Z,29.65
2023-05-21T14:22:13.337Z,29.82
2023-05-21T14:23:13.365Z,29.83
2023-05-21T14:24:13.328Z,30.20
2023-05-21T14:25:13.355Z,30.46
2023-05-21T14:26:13.317Z,30.92
2023-05-21T14:27:15.248Z,31.12
2023-05-21T14:28:13.329Z,30.95
2023-05-21T14:29:13.344Z,29.21
2023-05-21T14:30:13.313Z,28.90
2023-05-21T14:31:13.321Z,28.61
2023-05-21T14:32:13.384Z,28.71
2023-05-21T14:33:13.428Z,28.96
2023-05-21T14:34:13.279Z,28.68
2023-05-21T14:35:13.288Z,28.17
2023-05-21T14:36:13.263Z,27.54
2023-05-21T14:37:13.287Z,27.39
2023-05-21T14:38:13.252Z,27.43
2023-05-21T14:45:50.134Z,26.91
2023-05-21T14:46:50.022Z,26.85
2023-05-21T14:47:50.041Z,27.29
2023-05-21T14:48:50.005Z,27.51
2023-05-21T14:49:51.511Z,27.84
2023-05-21T14:50:50.002Z,28.19
2023-05-21T14:51:50.000Z,28.33
2023-05-21T14:52:49.957Z,28.46
2023-05-21T14:53:49.958Z,28.31
2023-05-21T14:54:49.960Z,28.33
2023-05-21T14:55:49.965Z,28.41
2023-05-21T14:56:49.957Z,28.76
2023-05-21T14:57:49.944Z,28.76
2023-05-21T14:58:49.921Z,28.83
2023-05-21T14:59:49.926Z,28.66
2023-05-21T15:00:49.897Z,28.68
2023-05-21T15:01:49.960Z,28.44
2023-05-21T15:02:49.991Z,28.34
2023-05-21T15:03:49.971Z,28.43
2023-05-21T15:04:49.862Z,28.43
2023-05-21T15:05:49.867Z,28.37
2023-05-21T15:06:49.864Z,28.17
2023-05-21T15:07:49.855Z,27.82
2023-05-21T15:08:49.855Z,27.78
2023-05-21T15:09:49.849Z,27.63
2023-05-21T15:10:49.835Z,27.63
2023-05-21T15:11:49.815Z,27.60
2023-05-21T15:12:49.832Z,27.63
2023-05-21T15:13:49.817Z,27.93
2023-05-21T15:14:49.785Z,27.93
2023-05-21T15:17:20.654Z,28.03
2023-05-21T15:29:52.383Z,26.84
2023-05-21T15:30:52.386Z,27.40
2023-05-21T15:32:54.922Z,27.90
2023-05-21T15:33:54.897Z,27.96
2023-05-21T15:39:27.224Z,26.72
2023-05-21T15:40:27.438Z,27.07
2023-05-21T15:41:27.164Z,27.43
2023-05-21T15:42:27.180Z,28.02
2023-05-21T15:43:27.178Z,28.55
2023-05-21T15:44:27.152Z,28.89
2023-05-21T15:45:27.140Z,28.43
2023-05-21T15:46:27.164Z,28.17
2023-05-21T15:51:09.182Z,26.85
2023-05-21T15:52:09.151Z,26.85
2023-05-21T15:52:58.766Z,27.06
2023-05-21T15:53:58.752Z,27.06
2023-05-21T16:05:44.145Z,26.55
2023-05-21T16:06:44.129Z,26.65
2023-05-21T16:07:44.110Z,26.81
2023-05-21T16:08:44.127Z,27.02
2023-05-21T16:09:44.092Z,26.84
2023-05-21T16:10:44.122Z,27.28
2023-05-21T16:11:44.080Z,27.57
2023-05-21T16:12:44.076Z,27.96
2023-05-21T16:13:44.075Z,28.06
2023-05-21T16:14:44.080Z,28.06
2023-05-21T16:15:44.049Z,28.02
2023-05-21T16:16:44.073Z,28.24
2023-05-21T16:17:44.043Z,28.22
2023-05-21T16:18:44.098Z,28.36
2023-05-21T16:19:44.025Z,27.96
2023-05-21T16:20:44.017Z,27.07
2023-05-21T16:21:44.006Z,27.19
2023-05-21T16:22:43.982Z,27.29
2023-05-21T16:23:43.969Z,27.29
2023-05-21T16:24:43.973Z,27.07
2023-05-21T16:25:43.974Z,27.09
2023-05-21T16:26:43.970Z,27.28
2023-05-21T16:27:43.957Z,27.06
2023-05-21T16:28:43.942Z,26.87
2023-05-21T16:29:43.951Z,26.84
